createdAt,value
2023-01-12T00:00:34.079Z,18.75
2023-01-12T00:02:36.084Z,20.90
2023-01-12T00:04:38.115Z,21.65
2023-01-12T00:06:40.343Z,25.30
2023-01-12T00:08:42.173Z,25.73
2023-01-12T00:10:43.693Z,24.50
2023-01-12T00:12:45.223Z,22.48
2023-01-12T00:14:46.766Z,20.23
2023-01-12T00:16:48.266Z,19.20
2023-01-12T00:18:50.563Z,19.35
2023-01-12T00:20:52.123Z,20.58
2023-01-12T00:22:54.208Z,22.17
2023-01-12T00:24:55.967Z,23.23
2023-01-12T00:26:59.581Z,23.65
2023-01-12T00:29:01.307Z,23.27
2023-01-12T00:31:08.154Z,20.45
2023-01-12T00:33:09.776Z,25.05
2023-01-12T00:35:11.305Z,26.00
2023-01-12T00:37:13.518Z,22.45
2023-01-12T00:39:15.957Z,24.33
2023-01-12T00:41:37.778Z,17.35
2023-01-12T00:43:57.914Z,24.15
2023-01-12T00:45:59.489Z,25.52
2023-01-12T00:48:01.003Z,18.42
2023-01-12T00:50:02.602Z,27.77
2023-01-12T00:52:06.106Z,18.65
2023-01-12T00:54:08.469Z,18.90
2023-01-12T00:56:10.011Z,30.70
2023-01-12T00:58:11.561Z,31.25
2023-01-12T01:00:13.610Z,22.60
2023-01-12T01:02:15.270Z,31.38
2023-01-12T01:04:17.044Z,24.10
2023-01-12T01:06:18.597Z,19.55
2023-01-12T01:08:20.100Z,23.05
2023-01-12T01:10:21.730Z,22.33
2023-01-12T01:12:23.233Z,21.73
2023-01-12T01:14:25.404Z,26.17
2023-01-12T01:16:27.134Z,20.20
2023-01-12T01:18:29.001Z,23.35
2023-01-12T01:20:34.525Z,21.67
2023-01-12T01:22:36.087Z,25.25
2023-01-12T01:24:37.590Z,22.75
2023-01-12T01:26:40.120Z,21.38
2023-01-12T01:28:42.411Z,23.77
2023-01-12T01:30:45.455Z,31.27
2023-01-12T01:32:46.952Z,26.85
2023-01-12T01:34:48.541Z,27.95
2023-01-12T01:36:50.058Z,27.60
2023-01-12T01:38:51.791Z,28.38
2023-01-12T01:40:54.070Z,93.20
2023-01-12T01:42:55.562Z,27.70
2023-01-12T01:45:06.835Z,28.88
2023-01-12T01:47:15.579Z,25.35
2023-01-12T01:49:39.438Z,34.65
2023-01-12T01:51:42.066Z,34.08
2023-01-12T01:53:46.980Z,33.85
2023-01-12T01:55:51.167Z,32.05
2023-01-12T01:57:58.777Z,35.08
2023-01-12T02:00:01.177Z,32.25
2023-01-12T02:02:03.500Z,30.60
2023-01-12T02:04:06.208Z,31.83
2023-01-12T02:06:09.120Z,35.85
2023-01-12T02:08:19.853Z,33.60
2023-01-12T02:10:21.565Z,36.20
2023-01-12T02:12:41.778Z,29.30
2023-01-12T02:15:05.439Z,31.67
2023-01-12T02:17:22.162Z,33.42
2023-01-12T02:19:56.664Z,35.67
2023-01-12T02:22:40.051Z,37.47
2023-01-12T02:25:18.961Z,40.92
2023-01-12T02:28:12.689Z,40.90
2023-01-12T02:30:22.519Z,47.88
2023-01-12T02:32:42.655Z,41.13
2023-01-12T02:34:53.341Z,38.67
2023-01-12T02:37:05.493Z,38.50
2023-01-12T02:39:15.420Z,44.22
2023-01-12T02:41:56.354Z,40.10
2023-01-12T02:43:58.083Z,42.58
2023-01-12T02:46:23.269Z,45.58
2023-01-12T02:49:00.015Z,41.75
2023-01-12T02:51:05.804Z,41.65
2023-01-12T02:53:14.544Z,42.38
2023-01-12T02:55:18.045Z,31.45
2023-01-12T02:57:22.893Z,34.95
2023-01-12T02:59:27.504Z,41.78
2023-01-12T03:01:29.764Z,38.38
2023-01-12T03:03:31.832Z,37.95
2023-01-12T03:05:33.428Z,40.22
2023-01-12T03:07:38.422Z,36.63
2023-01-12T03:09:48.040Z,39.97
2023-01-12T03:11:53.602Z,38.28
2023-01-12T03:14:00.045Z,39.55
2023-01-12T03:16:04.398Z,41.10
2023-01-12T03:18:14.918Z,42.33
2023-01-12T03:20:24.646Z,41.85
2023-01-12T03:24:44.935Z,40.78
2023-01-12T03:26:51.502Z,45.53
2023-01-12T03:28:59.322Z,36.08
2023-01-12T03:31:11.291Z,44.45
2023-01-12T03:33:13.626Z,46.47
2023-01-12T03:35:15.785Z,47.42
2023-01-12T03:37:29.218Z,45.63
2023-01-12T03:40:00.341Z,43.63
2023-01-12T03:42:15.292Z,47.58
2023-01-12T03:44:24.733Z,44.33
2023-01-12T03:46:32.135Z,44.38
2023-01-12T03:48:57.852Z,48.08
2023-01-12T03:51:02.556Z,40.92
2023-01-12T03:53:06.763Z,43.78
2023-01-12T03:55:12.190Z,43.47
2023-01-12T03:57:15.366Z,39.33
2023-01-12T03:59:17.007Z,38.60
2023-01-12T04:01:18.890Z,43.03
2023-01-12T04:03:20.697Z,39.72
2023-01-12T04:05:22.209Z,37.15
2023-01-12T04:07:23.757Z,36.08
2023-01-12T04:09:25.943Z,40.83
2023-01-12T04:11:46.249Z,42.67
2023-01-12T04:13:47.761Z,40.47
2023-01-12T04:15:49.320Z,40.10
2023-01-12T04:17:51.033Z,38.53
2023-01-12T04:19:52.647Z,43.75
2023-01-12T04:22:12.472Z,42.97
2023-01-12T04:26:17.465Z,42.08
2023-01-12T04:28:19.051Z,45.35
2023-01-12T04:30:23.611Z,45.20
2023-01-12T04:32:25.232Z,44.03
2023-01-12T04:34:26.758Z,41.65
2023-01-12T04:36:28.253Z,42.58
2023-01-12T04:38:29.794Z,49.22
2023-01-12T04:40:31.339Z,41.45
2023-01-12T04:42:51.538Z,45.67
2023-01-12T04:44:53.044Z,45.70
2023-01-12T04:46:54.577Z,50.53
2023-01-12T04:48:56.103Z,54.53
2023-01-12T04:50:59.381Z,51.70
2023-01-12T04:53:05.718Z,52.17
2023-01-12T04:55:07.780Z,54.67
2023-01-12T04:57:09.302Z,52.30
2023-01-12T04:59:10.871Z,52.72
2023-01-12T05:01:15.603Z,51.10
2023-01-12T05:03:17.839Z,49.42
2023-01-12T05:05:19.353Z,48.78
2023-01-12T05:07:20.917Z,52.63
2023-01-12T05:09:41.013Z,48.58
2023-01-12T05:11:42.593Z,46.40
2023-01-12T05:13:44.512Z,46.17
2023-01-12T05:15:46.070Z,45.53
2023-01-12T05:17:47.730Z,44.42
2023-01-12T05:19:49.790Z,44.97
2023-01-12T05:21:51.299Z,50.08
2023-01-12T05:23:53.439Z,49.13
2023-01-12T05:25:59.063Z,51.90
2023-01-12T05:28:01.013Z,48.83
2023-01-12T05:30:02.635Z,44.45
2023-01-12T05:32:04.395Z,48.85
2023-01-12T05:34:05.924Z,45.03
2023-01-12T05:36:09.668Z,44.08
2023-01-12T05:38:11.721Z,41.65
2023-01-12T05:40:13.476Z,40.80
2023-01-12T05:42:33.416Z,43.67
2023-01-12T05:44:34.934Z,40.47
2023-01-12T05:46:40.227Z,39.50
2023-01-12T05:48:41.932Z,39.65
2023-01-12T05:50:43.597Z,47.38
2023-01-12T05:52:45.169Z,57.17
2023-01-12T05:54:46.723Z,49.33
2023-01-12T05:56:49.851Z,47.15
2023-01-12T05:58:56.637Z,45.05
2023-01-12T06:00:58.219Z,47.80
2023-01-12T06:02:59.764Z,44.40
2023-01-12T06:05:01.378Z,50.58
2023-01-12T06:07:02.880Z,47.53
2023-01-12T06:09:04.996Z,48.92
2023-01-12T06:11:06.545Z,51.55
2023-01-12T06:13:28.025Z,51.95
2023-01-12T06:15:29.552Z,53.97
2023-01-12T06:17:31.030Z,50.30
2023-01-12T06:19:32.674Z,46.08
2023-01-12T06:21:34.458Z,53.20
2023-01-12T06:23:36.070Z,53.17
2023-01-12T06:25:37.628Z,59.63
2023-01-12T06:27:39.736Z,66.78
2023-01-12T06:29:41.307Z,60.35
2023-01-12T06:31:43.976Z,75.57
2023-01-12T06:33:45.565Z,72.82
2023-01-12T06:35:50.419Z,82.20
2023-01-12T06:37:56.289Z,92.25
2023-01-12T06:39:58.034Z,97.78
2023-01-12T06:42:18.276Z,111.53
2023-01-12T06:44:19.801Z,97.63
2023-01-12T06:46:21.385Z,110.50
2023-01-12T06:48:25.968Z,117.47
2023-01-12T06:50:27.515Z,146.68
2023-01-12T06:52:30.216Z,143.85
2023-01-12T06:54:31.820Z,133.98
2023-01-12T06:56:33.428Z,129.02
2023-01-12T06:58:34.990Z,120.45
2023-01-12T07:00:36.567Z,128.63
2023-01-12T07:02:38.094Z,140.18
2023-01-12T07:04:40.413Z,144.32
2023-01-12T07:06:42.053Z,145.68
2023-01-12T07:08:43.655Z,149.30
2023-01-12T07:10:46.638Z,145.18
2023-01-12T07:12:48.175Z,135.40
2023-01-12T07:14:49.807Z,133.05
2023-01-12T07:16:51.828Z,123.30
2023-01-12T07:18:53.345Z,119.53
2023-01-12T07:20:54.876Z,118.22
2023-01-12T07:22:56.472Z,113.45
2023-01-12T07:24:58.065Z,108.78
2023-01-12T07:26:59.652Z,109.72
2023-01-12T07:29:01.177Z,107.10
2023-01-12T07:31:05.216Z,98.55
2023-01-12T07:33:08.393Z,109.53
2023-01-12T07:35:10.174Z,108.25
2023-01-12T07:37:11.692Z,108.68
2023-01-12T07:39:14.074Z,101.60
2023-01-12T07:41:34.050Z,107.13
2023-01-12T07:43:35.602Z,124.68
2023-01-12T07:45:37.377Z,142.27
2023-01-12T07:47:39.442Z,156.55
2023-01-12T07:49:42.128Z,134.85
2023-01-12T07:51:43.681Z,114.53
2023-01-12T07:53:46.962Z,134.23
2023-01-12T07:55:48.511Z,138.75
2023-01-12T07:57:58.675Z,123.20
2023-01-12T08:00:00.205Z,105.07
2023-01-12T08:02:01.738Z,96.63
2023-01-12T08:04:03.966Z,94.18
2023-01-12T08:06:06.228Z,83.82
2023-01-12T08:08:08.345Z,93.72
2023-01-12T08:10:11.343Z,100.25
2023-01-12T08:12:12.931Z,94.20
2023-01-12T08:14:28.932Z,81.85
2023-01-12T08:16:37.645Z,87.90
2023-01-12T08:18:46.239Z,62.17
2023-01-12T08:20:48.928Z,78.55
2023-01-12T08:22:53.493Z,72.82
2023-01-12T08:25:16.606Z,62.45
2023-01-12T08:27:22.225Z,56.35
2023-01-12T08:29:31.968Z,50.90
2023-01-12T08:31:33.675Z,43.40
2023-01-12T08:33:38.222Z,98.20
2023-01-12T08:35:39.730Z,106.20
2023-01-12T08:37:41.319Z,55.85
2023-01-12T08:39:43.451Z,44.78
2023-01-12T08:41:45.183Z,41.97
2023-01-12T08:44:07.512Z,36.58
2023-01-12T08:46:09.198Z,27.45
2023-01-12T08:48:10.740Z,33.30
2023-01-12T08:50:12.459Z,30.65
2023-01-12T08:52:16.544Z,24.63
2023-01-12T08:54:20.128Z,23.65
2023-01-12T08:56:22.481Z,21.35
2023-01-12T08:58:24.031Z,26.20
2023-01-12T09:00:25.588Z,20.08
2023-01-12T09:02:27.579Z,23.48
2023-01-12T09:04:29.314Z,35.78
2023-01-12T09:06:42.716Z,36.58
2023-01-12T09:08:54.545Z,43.97
2023-01-12T09:11:12.273Z,38.97
2023-01-12T09:13:16.202Z,37.47
2023-01-12T09:15:17.740Z,29.42
2023-01-12T09:17:19.645Z,26.35
2023-01-12T09:19:21.271Z,22.13
2023-01-12T09:21:25.108Z,24.67
2023-01-12T09:23:40.438Z,20.58
2023-01-12T09:25:51.054Z,24.17
2023-01-12T09:27:53.048Z,26.80
2023-01-12T09:29:54.557Z,25.27
2023-01-12T09:31:56.119Z,28.38
2023-01-12T09:33:58.572Z,28.10
2023-01-12T09:36:01.514Z,27.30
2023-01-12T09:38:11.388Z,21.85
2023-01-12T09:40:18.478Z,21.98
2023-01-12T09:45:41.630Z,31.25
2023-01-12T09:47:58.383Z,37.90
2023-01-12T09:50:21.032Z,34.47
2023-01-12T09:52:27.762Z,38.53
2023-01-12T09:54:29.281Z,29.73
2023-01-12T09:56:59.307Z,26.60
2023-01-12T09:59:41.169Z,25.42
2023-01-12T10:01:43.249Z,25.85
2023-01-12T10:03:44.952Z,26.63
2023-01-12T10:05:52.605Z,27.30
2023-01-12T10:07:55.923Z,33.58
2023-01-12T10:09:58.460Z,32.00
2023-01-12T10:12:16.614Z,33.33
2023-01-12T10:14:33.422Z,28.23
2023-01-12T10:16:51.349Z,32.60
2023-01-12T10:18:58.694Z,26.85
2023-01-12T10:21:03.179Z,23.33
2023-01-12T10:23:17.289Z,23.17
2023-01-12T10:25:45.974Z,27.17
2023-01-12T10:27:53.279Z,31.08
2023-01-12T10:30:03.030Z,21.20
2023-01-12T10:32:04.922Z,19.38
2023-01-12T10:34:08.872Z,20.92
2023-01-12T10:36:18.049Z,22.60
2023-01-12T10:38:32.534Z,21.20
2023-01-12T10:40:35.027Z,17.75
2023-01-12T10:42:55.771Z,19.42
2023-01-12T10:45:16.444Z,23.35
2023-01-12T10:47:19.473Z,20.52
2023-01-12T10:49:23.155Z,20.80
2023-01-12T10:51:30.241Z,21.27
2023-01-12T10:53:48.461Z,19.77
2023-01-12T10:55:50.701Z,22.52
2023-01-12T10:57:52.946Z,22.15
2023-01-12T11:00:02.880Z,20.08
2023-01-12T11:04:20.241Z,19.95
2023-01-12T11:06:23.553Z,17.52
2023-01-12T11:08:29.565Z,19.45
2023-01-12T11:10:38.741Z,22.95
2023-01-12T11:12:41.239Z,19.73
2023-01-12T11:14:43.077Z,21.63
2023-01-12T11:16:53.701Z,21.15
2023-01-12T11:19:07.276Z,22.40
2023-01-12T11:21:12.581Z,23.77
2023-01-12T11:23:39.188Z,26.20
2023-01-12T11:25:44.994Z,21.77
2023-01-12T11:28:04.394Z,24.67
2023-01-12T11:30:41.509Z,23.98
2023-01-12T11:32:49.734Z,21.48
2023-01-12T11:35:04.930Z,23.33
2023-01-12T11:37:14.246Z,22.75
2023-01-12T11:39:22.969Z,23.17
2023-01-12T11:41:36.536Z,25.00
2023-01-12T11:44:01.027Z,20.13
2023-01-12T11:46:08.739Z,25.70
2023-01-12T11:48:22.845Z,21.52
2023-01-12T11:50:30.683Z,24.55
2023-01-12T11:52:32.979Z,26.50
2023-01-12T11:54:38.308Z,39.22
2023-01-12T11:57:00.344Z,39.28
2023-01-12T11:59:23.170Z,31.65
2023-01-12T12:01:36.784Z,28.90
2023-01-12T12:04:04.450Z,21.83
2023-01-12T12:06:18.176Z,27.17
2023-01-12T12:08:51.964Z,44.33
2023-01-12T12:10:59.029Z,46.00
2023-01-12T12:13:22.798Z,31.83
2023-01-12T12:16:01.326Z,46.90
2023-01-12T12:18:17.831Z,41.67
2023-01-12T12:20:37.741Z,21.80
2023-01-12T12:25:24.556Z,17.92
2023-01-12T12:27:36.690Z,22.23
2023-01-12T12:29:55.313Z,20.63
2023-01-12T12:32:14.880Z,19.77
2023-01-12T12:34:52.107Z,25.48
2023-01-12T12:36:53.623Z,25.30
2023-01-12T12:39:01.017Z,19.50
2023-01-12T12:41:57.412Z,26.20
2023-01-12T12:44:38.055Z,24.75
2023-01-12T12:46:58.742Z,23.42
2023-01-12T12:49:07.538Z,31.60
2023-01-12T12:51:10.020Z,19.35
2023-01-12T12:53:14.055Z,33.75
2023-01-12T12:55:19.269Z,22.15
2023-01-12T12:57:20.905Z,19.23
2023-01-12T12:59:31.817Z,20.27
2023-01-12T13:01:33.394Z,15.05
2023-01-12T13:03:41.148Z,17.70
2023-01-12T13:05:47.945Z,20.38
2023-01-12T13:07:52.807Z,15.43
2023-01-12T13:10:20.728Z,26.83
2023-01-12T13:12:34.107Z,21.55
2023-01-12T13:14:36.961Z,19.98
2023-01-12T13:16:57.523Z,19.38
2023-01-12T13:18:59.620Z,18.27
2023-01-12T13:21:01.239Z,22.38
2023-01-12T13:23:02.783Z,23.45
2023-01-12T13:25:24.322Z,22.25
2023-01-12T13:28:00.987Z,18.95
2023-01-12T13:30:28.632Z,18.85
2023-01-12T13:32:42.024Z,20.23
2023-01-12T13:34:47.236Z,19.73
2023-01-12T13:37:19.587Z,21.15
2023-01-12T13:39:21.201Z,24.80
2023-01-12T13:41:52.609Z,16.90
2023-01-12T13:43:57.211Z,13.35
2023-01-12T13:46:10.987Z,15.63
2023-01-12T13:48:19.079Z,16.98
2023-01-12T13:50:28.601Z,21.35
2023-01-12T13:52:36.126Z,30.17
2023-01-12T13:54:49.769Z,38.85
2023-01-12T13:57:03.470Z,44.65
2023-01-12T13:59:07.890Z,42.10
2023-01-12T14:01:28.467Z,31.20
2023-01-12T14:03:36.464Z,23.33
2023-01-12T14:05:59.292Z,16.88
2023-01-12T14:08:08.315Z,19.40
2023-01-12T14:10:33.385Z,22.85
2023-01-12T14:12:53.924Z,20.83
2023-01-12T14:15:29.496Z,26.13
2023-01-12T14:17:49.904Z,25.35
2023-01-12T14:19:51.569Z,27.20
2023-01-12T14:22:06.487Z,21.48
2023-01-12T14:24:24.890Z,19.00
2023-01-12T14:26:35.645Z,24.73
2023-01-12T14:28:39.318Z,25.33
2023-01-12T14:30:47.065Z,26.67
2023-01-12T14:32:50.202Z,26.25
2023-01-12T14:34:55.324Z,20.58
2023-01-12T14:36:57.047Z,24.17
2023-01-12T14:39:07.991Z,33.33
2023-01-12T14:41:40.771Z,28.48
2023-01-12T14:44:01.777Z,60.60
2023-01-12T14:46:22.775Z,45.83
2023-01-12T14:48:27.522Z,46.17
2023-01-12T14:50:29.034Z,47.88
2023-01-12T14:52:32.459Z,32.88
2023-01-12T14:54:34.520Z,31.77
2023-01-12T14:56:43.245Z,47.38
2023-01-12T14:58:46.585Z,47.03
2023-01-12T15:00:48.218Z,48.88
2023-01-12T15:02:52.884Z,102.93
2023-01-12T15:04:57.126Z,72.35
2023-01-12T15:07:05.259Z,42.55
2023-01-12T15:09:11.036Z,52.08
2023-01-12T15:11:12.620Z,52.08
2023-01-12T15:13:33.352Z,40.35
2023-01-12T15:15:53.767Z,48.53
2023-01-12T15:18:14.321Z,55.22
2023-01-12T15:20:34.689Z,62.60
2023-01-12T15:22:54.540Z,29.75
2023-01-12T15:25:14.310Z,37.92
2023-01-12T15:29:18.492Z,78.25
2023-01-12T15:31:52.571Z,38.08
2023-01-12T15:33:54.545Z,46.63
2023-01-12T15:35:56.106Z,44.47
2023-01-12T15:37:58.956Z,55.53
2023-01-12T15:40:01.404Z,58.78
2023-01-12T15:42:18.475Z,62.83
2023-01-12T15:44:21.691Z,59.97
2023-01-12T15:46:23.209Z,52.53
2023-01-12T15:48:24.747Z,52.47
2023-01-12T15:50:26.617Z,57.17
2023-01-12T15:52:30.675Z,53.58
2023-01-12T15:54:32.293Z,51.42
2023-01-12T15:56:35.329Z,39.63
2023-01-12T15:58:36.926Z,34.30
2023-01-12T16:00:38.744Z,41.67
2023-01-12T16:02:40.262Z,34.47
2023-01-12T16:04:43.815Z,44.22
2023-01-12T16:06:47.163Z,38.03
2023-01-12T16:08:48.661Z,39.13
2023-01-12T16:11:10.418Z,54.70
2023-01-12T16:13:11.979Z,48.67
2023-01-12T16:15:19.744Z,58.10
2023-01-12T16:17:21.345Z,75.82
2023-01-12T16:19:23.663Z,98.75
2023-01-12T16:21:26.732Z,182.80
2023-01-12T16:23:28.668Z,175.77
2023-01-12T16:25:30.197Z,171.30
2023-01-12T16:27:32.443Z,121.68
2023-01-12T16:29:33.984Z,116.28
2023-01-12T16:31:38.826Z,157.68
2023-01-12T16:33:42.342Z,96.18
2023-01-12T16:35:44.772Z,52.28
2023-01-12T16:37:46.271Z,53.58
2023-01-12T16:39:47.879Z,53.75
2023-01-12T16:41:49.380Z,45.17
2023-01-12T16:43:51.240Z,43.95
2023-01-12T16:45:52.905Z,37.90
2023-01-12T16:47:57.820Z,49.15
2023-01-12T16:49:59.911Z,42.53
2023-01-12T16:52:02.167Z,39.05
2023-01-12T16:54:04.793Z,45.17
2023-01-12T16:56:06.831Z,41.28
2023-01-12T16:58:09.652Z,38.83
2023-01-12T17:00:11.744Z,40.78
2023-01-12T17:02:17.634Z,37.92
2023-01-12T17:04:23.277Z,36.70
2023-01-12T17:06:27.295Z,35.03
2023-01-12T17:08:29.499Z,38.38
2023-01-12T17:10:31.134Z,41.88
2023-01-12T17:12:32.699Z,32.47
2023-01-12T17:14:34.860Z,39.50
2023-01-12T17:16:36.869Z,44.05
2023-01-12T17:18:39.604Z,41.95
2023-01-12T17:20:41.408Z,38.88
2023-01-12T17:22:43.791Z,35.50
2023-01-12T17:24:45.610Z,39.28
2023-01-12T17:26:49.726Z,47.83
2023-01-12T17:28:51.311Z,44.38
2023-01-12T17:30:53.056Z,42.38
2023-01-12T17:32:54.671Z,36.15
2023-01-12T17:34:56.175Z,32.55
2023-01-12T17:37:00.082Z,30.33
2023-01-12T17:39:01.927Z,28.60
2023-01-12T17:41:33.484Z,27.17
2023-01-12T17:43:37.229Z,28.02
2023-01-12T17:45:42.929Z,32.85
2023-01-12T17:47:44.482Z,31.35
2023-01-12T17:49:47.889Z,37.22
2023-01-12T17:51:49.521Z,52.60
2023-01-12T17:53:58.202Z,102.32
2023-01-12T17:56:02.651Z,90.85
2023-01-12T17:58:05.477Z,75.45
2023-01-12T18:00:09.182Z,82.78
2023-01-12T18:02:11.839Z,120.65
2023-01-12T18:04:14.605Z,72.18
2023-01-12T18:06:25.976Z,137.63
2023-01-12T18:08:27.958Z,141.50
2023-01-12T18:10:29.511Z,63.30
2023-01-12T18:12:31.680Z,72.00
2023-01-12T18:14:33.606Z,69.30
2023-01-12T18:16:35.579Z,45.40
2023-01-12T18:18:38.762Z,79.20
2023-01-12T18:20:40.287Z,143.13
2023-01-12T18:22:41.827Z,45.67
2023-01-12T18:24:43.367Z,107.80
2023-01-12T18:26:44.894Z,35.50
2023-01-12T18:28:46.575Z,49.70
2023-01-12T18:30:48.147Z,31.55
2023-01-12T18:32:49.657Z,30.20
2023-01-12T18:34:51.332Z,46.67
2023-01-12T18:36:52.919Z,37.58
2023-01-12T18:38:55.287Z,25.30
2023-01-12T18:41:20.022Z,30.30
2023-01-12T18:43:21.539Z,21.80
2023-01-12T18:45:24.578Z,23.52
2023-01-12T18:47:44.382Z,30.85
2023-01-12T18:52:08.044Z,19.70
2023-01-12T18:54:12.383Z,18.17
2023-01-12T18:56:14.531Z,25.60
2023-01-12T18:58:16.110Z,20.70
2023-01-12T19:00:18.215Z,20.13
2023-01-12T19:02:20.557Z,22.67
2023-01-12T19:04:35.582Z,19.85
2023-01-12T19:06:47.473Z,21.00
2023-01-12T19:09:08.936Z,24.58
2023-01-12T19:11:12.204Z,31.52
2023-01-12T19:13:32.278Z,27.10
2023-01-12T19:15:52.292Z,34.35
2023-01-12T19:17:53.998Z,31.17
2023-01-12T19:20:03.223Z,30.73
2023-01-12T19:22:23.318Z,29.60
2023-01-12T19:24:43.280Z,27.55
2023-01-12T19:27:03.488Z,25.20
2023-01-12T19:29:04.981Z,22.33
2023-01-12T19:31:10.105Z,22.58
2023-01-12T19:33:15.598Z,21.50
2023-01-12T19:35:17.357Z,25.48
2023-01-12T19:37:18.891Z,25.85
2023-01-12T19:39:28.848Z,24.45
2023-01-12T19:41:48.989Z,24.40
2023-01-12T19:43:50.561Z,29.92
2023-01-12T19:45:59.203Z,26.42
2023-01-12T19:48:01.470Z,18.98
2023-01-12T19:50:07.678Z,18.83
2023-01-12T19:52:09.229Z,23.35
2023-01-12T19:54:10.774Z,22.95
2023-01-12T19:56:13.131Z,20.35
2023-01-12T19:58:14.908Z,18.52
2023-01-12T20:00:17.634Z,21.65
2023-01-12T20:02:19.398Z,18.77
2023-01-12T20:04:21.115Z,17.58
2023-01-12T20:06:22.756Z,20.13
2023-01-12T20:08:25.546Z,22.88
2023-01-12T20:10:27.290Z,25.00
2023-01-12T20:12:28.935Z,19.10
2023-01-12T20:14:31.517Z,23.58
2023-01-12T20:16:33.670Z,26.75
2023-01-12T20:18:35.569Z,20.85
2023-01-12T20:20:39.436Z,23.95
2023-01-12T20:22:41.168Z,20.05
2023-01-12T20:24:42.812Z,24.17
2023-01-12T20:26:44.499Z,24.00
2023-01-12T20:28:46.145Z,22.13
2023-01-12T20:30:47.684Z,27.15
2023-01-12T20:32:51.696Z,25.77
2023-01-12T20:34:53.229Z,20.90
2023-01-12T20:36:54.955Z,29.80
2023-01-12T20:38:58.249Z,26.48
2023-01-12T20:41:00.812Z,20.02
2023-01-12T20:43:02.622Z,28.40
2023-01-12T20:45:06.016Z,32.00
2023-01-12T20:47:07.598Z,42.55
2023-01-12T20:49:09.835Z,33.75
2023-01-12T20:51:13.903Z,33.20
2023-01-12T20:53:16.497Z,23.77
2023-01-12T20:55:18.544Z,21.33
2023-01-12T20:57:20.896Z,26.55
2023-01-12T20:59:22.427Z,29.80
2023-01-12T21:01:24.130Z,26.25
2023-01-12T21:03:26.011Z,25.63
2023-01-12T21:05:27.594Z,23.30
2023-01-12T21:07:29.166Z,20.23
2023-01-12T21:09:30.725Z,30.25
2023-01-12T21:11:32.408Z,43.72
2023-01-12T21:13:34.692Z,33.60
2023-01-12T21:15:36.614Z,31.52
2023-01-12T21:17:39.161Z,22.80
2023-01-12T21:19:40.808Z,34.33
2023-01-12T21:21:42.330Z,23.92
2023-01-12T21:23:44.026Z,25.20
2023-01-12T21:25:45.635Z,24.75
2023-01-12T21:27:47.257Z,22.65
2023-01-12T21:29:49.273Z,21.58
2023-01-12T21:31:51.004Z,22.42
2023-01-12T21:33:52.667Z,25.17
2023-01-12T21:35:58.503Z,24.65
2023-01-12T21:38:00.133Z,29.33
2023-01-12T21:40:01.693Z,25.33
2023-01-12T21:42:22.307Z,24.95
2023-01-12T21:44:23.816Z,22.42
2023-01-12T21:46:25.920Z,25.83
2023-01-12T21:48:27.456Z,25.15
2023-01-12T21:50:29.019Z,23.52
2023-01-12T21:52:33.064Z,24.50
2023-01-12T21:54:34.627Z,23.27
2023-01-12T21:56:36.468Z,22.85
2023-01-12T21:58:38.296Z,21.45
2023-01-12T22:00:39.795Z,21.48
2023-01-12T22:02:41.892Z,26.77
2023-01-12T22:04:43.507Z,26.45
2023-01-12T22:06:44.991Z,26.38
2023-01-12T22:08:46.493Z,31.10
2023-01-12T22:10:48.062Z,27.58
2023-01-12T22:12:57.541Z,21.98
2023-01-12T22:14:59.104Z,23.23
2023-01-12T22:17:00.742Z,26.88
2023-01-12T22:19:03.790Z,24.35
2023-01-12T22:21:09.626Z,29.70
2023-01-12T22:23:13.079Z,23.83
2023-01-12T22:25:15.697Z,25.08
2023-01-12T22:27:17.222Z,27.23
2023-01-12T22:29:18.747Z,23.15
2023-01-12T22:31:22.819Z,27.60
2023-01-12T22:33:24.461Z,28.15
2023-01-12T22:35:26.457Z,28.13
2023-01-12T22:37:29.098Z,22.70
2023-01-12T22:39:30.676Z,24.10
2023-01-12T22:41:32.231Z,23.13
2023-01-12T22:43:40.468Z,22.80
2023-01-12T22:45:42.096Z,25.30
2023-01-12T22:47:48.350Z,24.20
2023-01-12T22:49:50.206Z,29.55
2023-01-12T22:51:51.754Z,24.73
2023-01-12T22:53:54.444Z,24.63
2023-01-12T22:56:00.319Z,24.48
2023-01-12T22:58:01.866Z,27.85
2023-01-12T23:00:04.944Z,25.23
2023-01-12T23:02:26.585Z,23.40
2023-01-12T23:04:28.122Z,21.73
2023-01-12T23:06:29.725Z,20.45
2023-01-12T23:08:31.294Z,24.42
2023-01-12T23:10:33.263Z,22.25
2023-01-12T23:12:34.868Z,22.17
2023-01-12T23:14:36.457Z,25.10
2023-01-12T23:16:37.992Z,23.33
2023-01-12T23:18:41.272Z,28.10
2023-01-12T23:20:43.413Z,22.98
2023-01-12T23:22:44.958Z,25.50
2023-01-12T23:24:46.484Z,28.90
2023-01-12T23:26:48.012Z,22.33
2023-01-12T23:28:52.761Z,24.65
2023-01-12T23:30:54.298Z,24.00
2023-01-12T23:32:59.587Z,21.77
2023-01-12T23:35:02.128Z,21.67
2023-01-12T23:37:03.688Z,25.17
2023-01-12T23:39:07.179Z,21.77
2023-01-12T23:41:18.181Z,23.83
2023-01-12T23:43:20.929Z,24.92
2023-01-12T23:45:23.934Z,23.80
2023-01-12T23:47:25.859Z,24.08
2023-01-12T23:49:27.374Z,27.13
2023-01-12T23:51:29.907Z,23.42
2023-01-12T23:53:31.926Z,26.05
2023-01-12T23:55:33.597Z,23.80
2023-01-12T23:57:35.523Z,26.58
2023-01-12T23:59:37.095Z,30.05
